Forside
METAR-TAF:

METAR-TAF

Lufthavne :

Anoka County-Blaine Airport (Janes Field)

Minneapolis / Blaine, Minnesota, USA

Breddekreds: 45-09N, længdekreds: 093-13W, højde: 278 m

Aktuelle vejr

Denne rapport blev lavet for 16 minutter siden, kl. 06:15 UTC
Vind 3 kt fra østnordøst
Temperatur 8°C
Fugtighed 93%
Tryk 1020 hPa
Sigt: 16.1 km
skyfri

METAR: KANE 210615Z AUTO 07003KT 10SM CLR 08/07 A3011 RMK AO2

Tid: 01:31 (06:31 UTC)


TAF: fraværende

Vejrobservationer og prognoser fra mere end 4000 lufthavne (METAR og TAF).

De gule og røde prikker repræsenterer de meteorologiske stationer.

Flyt musen over at se navnet på stationen.

Så klik over at se vejr observationer og prognoser.

At skifte det kort: Klik på de grønne knapper med et sort kors for at zoome ind; på den grønne knap med en bindestreg for at zoome ud; eller på de grønne pile for tilstødende kort.


METAR-TAF: